Lebanon, MO

5:38 AM CST on December 03, 2016 (GMT -0600)
Roselawn Estates | | Change Station

Elev 1247 ft 37.67 °N, 92.59 °W | Updated 16 seconds ago

Overcast
Overcast
35.6 °F
Feels Like 36 °F
N
0.0
Wind Variable Wind from WSW
Gusts 0.0 mph

Today
High -- | Low -- °F
--% Chance of Precip.
Yesterday
High -- | Low -- °F
Precip. -- in
Pressure 30.32 in
Visibility 10.0 miles
Clouds Overcast 15000 ft
Windchill 36 °F
Dew Point 28 °F
Humidity 72%
Rainfall 0.00 in
Snow Depth Not available.
7:09 AM 4:51 PM
Waxing Crescent, 14% visible
METAR KTBN 031058Z AUTO 10003KT 10SM OVC150 03/M03 A3029 RMK AO2 SLP266 T00291034
Pressure 30.32 in
Visibility 10.0 miles
Clouds Overcast 15000 ft
Windchill 36 °F
Dew Point 28 °F
Humidity 72%
Rainfall 0.00 in
Snow Depth Not available.
7:09 AM 4:51 PM
Waxing Crescent, 14% visible
METAR KTBN 031058Z AUTO 10003KT 10SM OVC150 03/M03 A3029 RMK AO2 SLP266 T00291034

10-Day Weather Forecast

Almanac

Astronomy

Dec. 03, 2016 Rise Set
Actual Time
Civil Twilight
Nautical Twilight
Astronomical Twilight
Moon
Length of Visible Light
Length of Day
Tomorrow will be .
, % of the Moon is Illuminated

Today's Extremes

State Highs State Lows

Community

WunderPhotos

Upload Photos

1,955,431 photos uploaded!

WunderBlog® & News

Nearby

Air Quality

  Air Quality AQ Index Pollutant
Not available.

Snow Depth

Station Depth Elevation

Earthquake Activity

City Distance Mag. Time & Date
Minimum magnitude displayed is 2.5.

Coastal Water Temperatures

Place Temperature

Stations

Nearby Weather Stations

Station Location Temp. Windchill Dew Point Humidity Wind Precip. Elev Updated Type
                   

Watches & Warnings

There are currently no watches in effect.